KISQ/ISQ METAR and TAF weather

Enter ICAO airport designator
Station Type Date Time Source
KISQ METAR 2020/06/01 17:02 UTC NOAA

KISQ 011702Z AUTO 18009G15KT 10SM SCT100 BKN110 11/07 A3010 RMK AO2


Station Type Date Time Source
KISQ Decoded METAR 2020/06/01 17:02 UTC NOAA

Manistique, Schoolcraft County Airport, MI, United States (KISQ) 45-58-29N 086-10-19W
Jun 01, 2020 - 01:02 PM EDT / 2020.06.01 1702 UTC
Wind: from the S (180 degrees) at 10 MPH (9 KT) gusting to 17 MPH (15 KT):0
Visibility: 10 mile(s):0
Sky conditions: mostly cloudy
Temperature: 51 F (11 C)
Dew Point: 44 F (7 C)
Relative Humidity: 76%
Pressure (altimeter): 30.1 in. Hg (1019 hPa)
ob: KISQ 011702Z AUTO 18009G15KT 10SM SCT100 BKN110 11/07 A3010 RMK AO2
cycle: 17

Station Type Date Time Source
KISQ TAF UTC NOAA

Error!

Example: see airport list